Time;durP1;ratioP1;P1;durP2;ratioP2;P2;SDS_P1;SDS_P2;PMS_P1;PMS_P2;Temp;Humidity;BMP_temperature;BMP_pressure;BME280_temperature;BME280_humidity;BME280_pressure;Samples;Min_cycle;Max_cycle;Signal;HPM_P1;HPM_P2
2023/03/02 00:01:00;;;;;;;;;42.00;36.33;;;;;;;;5063416;28;64989;-80
2023/03/02 00:03:25;;;;;;;;;41.33;33.33;;;;;;;;5082278;27;61700;-80
2023/03/02 00:05:52;;;;;;;;;44.33;39.67;;;;;;;;5063652;28;61917;-80
2023/03/02 00:08:18;;;;;;;;;51.67;42.00;;;;;;;;5064584;28;62105;-80
2023/03/02 00:10:44;;;;;;;;;47.33;37.67;;;;;;;;5081729;28;61861;-80
2023/03/02 00:13:10;;;;;;;;;50.67;40.00;;;;;;;;5064153;28;62027;-79
2023/03/02 00:15:35;;;;;;;;;53.00;40.00;;;;;;;;5082484;28;61792;-79
2023/03/02 00:18:00;;;;;;;;;59.33;42.67;;;;;;;;5082314;28;62231;-79
2023/03/02 00:20:26;;;;;;;;;58.33;41.67;;;;;;;;5081674;28;62961;-79
2023/03/02 00:22:51;;;;;;;;;61.67;42.67;;;;;;;;5063742;28;61913;-79
2023/03/02 00:25:16;;;;;;;;;57.00;43.67;;;;;;;;5063640;28;61825;-79
2023/03/02 00:27:42;;;;;;;;;54.00;41.00;;;;;;;;5064263;28;62101;-79
2023/03/02 00:30:08;;;;;;;;;56.67;42.00;;;;;;;;5062882;28;63565;-79
2023/03/02 00:32:33;;;;;;;;;51.33;38.33;;;;;;;;5064174;28;61877;-80
2023/03/02 00:34:59;;;;;;;;;53.67;38.00;;;;;;;;5063582;28;61914;-80
2023/03/02 00:37:27;;;;;;;;;54.33;41.00;;;;;;;;5081822;27;61718;-80
2023/03/02 00:39:52;;;;;;;;;57.33;41.00;;;;;;;;5063316;28;63569;-80
2023/03/02 00:42:18;;;;;;;;;52.33;38.67;;;;;;;;5063571;27;61688;-80
2023/03/02 00:44:44;;;;;;;;;49.00;37.33;;;;;;;;5063633;28;61789;-80
2023/03/02 00:47:09;;;;;;;;;53.00;43.67;;;;;;;;5060256;28;61791;-80
2023/03/02 00:49:35;;;;;;;;;48.33;38.33;;;;;;;;5080671;28;61785;-80
2023/03/02 00:52:01;;;;;;;;;52.00;37.67;;;;;;;;5084498;27;61718;-80
2023/03/02 00:54:26;;;;;;;;;52.00;32.50;;;;;;;;5085397;27;61948;-80
2023/03/02 00:56:51;;;;;;;;;58.67;37.67;;;;;;;;5067215;28;61813;-80
2023/03/02 00:59:25;;;;;;;;;59.00;40.67;;;;;;;;5084426;27;62652;-80
2023/03/02 01:01:56;;;;;;;;;47.67;41.67;;;;;;;;5085339;28;61785;-80
2023/03/02 01:04:22;;;;;;;;;46.33;34.00;;;;;;;;5066979;28;61859;-80
2023/03/02 01:06:47;;;;;;;;;41.33;34.33;;;;;;;;5084625;27;61977;-80
2023/03/02 01:09:12;;;;;;;;;49.00;41.33;;;;;;;;5066273;28;65092;-80
2023/03/02 01:11:38;;;;;;;;;38.00;31.67;;;;;;;;5066980;27;61739;-80
2023/03/02 01:14:03;;;;;;;;;49.33;34.67;;;;;;;;5085279;27;61914;-80
2023/03/02 01:16:28;;;;;;;;;29.33;29.33;;;;;;;;5085178;27;61825;-80
2023/03/02 01:18:53;;;;;;;;;45.33;36.33;;;;;;;;5084560;27;61908;-80
2023/03/02 01:21:19;;;;;;;;;40.00;34.67;;;;;;;;5084540;28;62083;-80
2023/03/02 01:23:44;;;;;;;;;32.25;27.50;;;;;;;;5085224;27;61959;-80
2023/03/02 01:26:09;;;;;;;;;43.67;32.33;;;;;;;;5085216;27;61892;-80
2023/03/02 01:28:35;;;;;;;;;40.00;30.00;;;;;;;;5084157;28;62979;-79
2023/03/02 01:31:02;;;;;;;;;48.67;40.33;;;;;;;;5066220;28;62221;-79
2023/03/02 01:33:27;;;;;;;;;44.67;34.00;;;;;;;;5066182;28;61772;-79
2023/03/02 01:35:53;;;;;;;;;43.67;34.00;;;;;;;;5084710;28;61753;-79
2023/03/02 01:38:18;;;;;;;;;45.67;36.67;;;;;;;;5083808;27;61935;-79
2023/03/02 01:40:43;;;;;;;;;54.67;39.00;;;;;;;;5066444;27;61968;-79
2023/03/02 01:43:13;;;;;;;;;36.33;33.00;;;;;;;;5084931;27;61726;-80
2023/03/02 01:45:57;;;;;;;;;42.75;31.00;;;;;;;;5066247;28;61933;-80
2023/03/02 01:48:26;;;;;;;;;55.00;39.67;;;;;;;;5065528;28;64144;-80
2023/03/02 01:50:52;;;;;;;;;54.00;39.67;;;;;;;;5066100;28;61887;-80
2023/03/02 01:53:17;;;;;;;;;38.33;32.67;;;;;;;;5084019;27;61802;-79
2023/03/02 01:55:44;;;;;;;;;42.67;33.33;;;;;;;;5066441;28;61805;-79
2023/03/02 01:58:10;;;;;;;;;35.67;24.00;;;;;;;;5083954;28;62114;-79
2023/03/02 02:00:37;;;;;;;;;36.33;30.67;;;;;;;;5065362;28;61814;-79
2023/03/02 02:03:09;;;;;;;;;50.67;39.33;;;;;;;;5083511;28;61714;-79
2023/03/02 02:05:36;;;;;;;;;60.33;37.33;;;;;;;;5084568;28;62129;-79
2023/03/02 02:08:01;;;;;;;;;56.33;37.00;;;;;;;;5083394;27;61966;-79
2023/03/02 02:10:28;;;;;;;;;52.00;33.67;;;;;;;;5084408;28;61732;-79
2023/03/02 02:12:54;;;;;;;;;37.00;34.00;;;;;;;;5065936;27;61996;-79
2023/03/02 02:15:19;;;;;;;;;50.67;34.00;;;;;;;;5065860;28;61726;-79
2023/03/02 02:17:45;;;;;;;;;51.00;36.67;;;;;;;;5083393;27;62021;-79
2023/03/02 02:20:10;;;;;;;;;46.67;41.67;;;;;;;;5084126;27;61777;-79
2023/03/02 02:22:53;;;;;;;;;38.00;29.33;;;;;;;;5083925;27;61973;-79
2023/03/02 02:25:39;;;;;;;;;41.00;38.00;;;;;;;;5065974;27;61739;-79
2023/03/02 02:28:07;;;;;;;;;47.33;40.33;;;;;;;;5031039;28;63384;-79
2023/03/02 02:30:35;;;;;;;;;48.00;35.33;;;;;;;;5083146;28;61786;-79
2023/03/02 02:33:01;;;;;;;;;51.67;38.33;;;;;;;;5065525;28;61968;-79
2023/03/02 02:35:29;;;;;;;;;43.33;37.33;;;;;;;;5065664;28;61868;-79
2023/03/02 02:38:01;;;;;;;;;41.33;34.33;;;;;;;;5082728;28;63067;-79
2023/03/02 02:40:35;;;;;;;;;48.67;34.00;;;;;;;;5065672;28;61981;-79
2023/03/02 02:43:01;;;;;;;;;53.33;38.00;;;;;;;;5065495;28;61861;-79
2023/03/02 02:45:26;;;;;;;;;44.00;33.33;;;;;;;;5065112;27;61762;-79
2023/03/02 02:47:52;;;;;;;;;36.33;33.00;;;;;;;;5064660;28;63556;-79
2023/03/02 02:50:24;;;;;;;;;48.00;31.33;;;;;;;;5065348;28;61901;-79
2023/03/02 02:52:52;;;;;;;;;50.67;34.33;;;;;;;;5065037;27;62131;-79
2023/03/02 02:55:20;;;;;;;;;42.33;34.67;;;;;;;;5065382;28;61997;-79
2023/03/02 02:57:46;;;;;;;;;45.67;28.33;;;;;;;;5064350;28;65983;-79
2023/03/02 03:00:17;;;;;;;;;40.33;29.33;;;;;;;;5083075;28;61792;-79
2023/03/02 03:02:44;;;;;;;;;44.67;32.00;;;;;;;;5083390;27;61766;-79
2023/03/02 03:05:13;;;;;;;;;39.00;32.33;;;;;;;;5083741;28;61688;-79
2023/03/02 03:07:38;;;;;;;;;44.00;30.33;;;;;;;;5082354;28;61851;-79
2023/03/02 03:10:10;;;;;;;;;43.33;34.33;;;;;;;;5065112;28;61794;-79
2023/03/02 03:12:37;;;;;;;;;41.33;32.33;;;;;;;;5065097;28;61754;-79
2023/03/02 03:15:03;;;;;;;;;47.33;34.33;;;;;;;;5064695;28;61802;-79
2023/03/02 03:17:28;;;;;;;;;49.00;35.33;;;;;;;;5064007;28;63740;-79
2023/03/02 03:19:53;;;;;;;;;43.67;31.67;;;;;;;;5064912;28;61976;-79
2023/03/02 03:22:19;;;;;;;;;41.33;31.33;;;;;;;;5083101;28;61743;-79
2023/03/02 03:24:44;;;;;;;;;42.67;31.33;;;;;;;;5065013;28;62100;-79
2023/03/02 03:27:11;;;;;;;;;42.33;30.67;;;;;;;;5063809;28;63649;-79
2023/03/02 03:29:37;;;;;;;;;34.67;28.67;;;;;;;;5082623;27;61786;-81
2023/03/02 03:32:03;;;;;;;;;36.67;35.67;;;;;;;;5081881;27;63934;-79
2023/03/02 03:34:28;;;;;;;;;42.00;35.33;;;;;;;;5065029;28;61988;-79
2023/03/02 03:36:54;;;;;;;;;29.67;25.33;;;;;;;;5063426;28;63674;-79
2023/03/02 03:39:19;;;;;;;;;33.67;27.67;;;;;;;;5064478;28;61925;-79
2023/03/02 03:41:45;;;;;;;;;49.33;36.67;;;;;;;;5083071;28;61894;-79
2023/03/02 03:44:11;;;;;;;;;46.00;34.00;;;;;;;;5082761;28;61628;-79
2023/03/02 03:46:36;;;;;;;;;46.00;34.00;;;;;;;;5081728;28;62935;-79
2023/03/02 03:49:02;;;;;;;;;39.67;32.33;;;;;;;;5064202;28;61715;-79
2023/03/02 03:51:28;;;;;;;;;35.67;25.67;;;;;;;;5063935;28;62011;-79
2023/03/02 03:53:59;;;;;;;;;33.67;32.00;;;;;;;;5064430;28;61814;-79
2023/03/02 03:56:25;;;;;;;;;40.67;33.67;;;;;;;;5082044;28;63112;-79
2023/03/02 03:59:05;;;;;;;;;34.00;28.67;;;;;;;;5082095;28;61879;-79
2023/03/02 04:01:34;;;;;;;;;43.67;35.00;;;;;;;;5082480;28;61868;-79
2023/03/02 04:04:00;;;;;;;;;46.33;33.67;;;;;;;;5064364;28;62082;-79
2023/03/02 04:06:26;;;;;;;;;48.00;33.67;;;;;;;;5081577;28;62923;-79
2023/03/02 04:08:51;;;;;;;;;52.00;37.00;;;;;;;;5082453;28;61813;-79
2023/03/02 04:11:16;;;;;;;;;33.33;27.67;;;;;;;;5082024;28;61800;-79
2023/03/02 04:13:41;;;;;;;;;45.67;33.00;;;;;;;;5082760;27;61698;-79
2023/03/02 04:16:07;;;;;;;;;42.67;37.33;;;;;;;;5081546;28;63072;-79
2023/03/02 04:18:32;;;;;;;;;36.00;31.33;;;;;;;;5064226;28;61892;-79
2023/03/02 04:20:57;;;;;;;;;44.33;38.33;;;;;;;;5063902;28;61866;-79
2023/03/02 04:23:22;;;;;;;;;44.67;33.33;;;;;;;;5064088;28;62313;-79
2023/03/02 04:25:48;;;;;;;;;34.67;28.33;;;;;;;;5082589;27;61851;-79
2023/03/02 04:28:16;;;;;;;;;47.67;35.33;;;;;;;;5067244;27;61753;-79
2023/03/02 04:30:41;;;;;;;;;50.00;36.33;;;;;;;;5067082;28;61795;-79
2023/03/02 04:33:06;;;;;;;;;45.00;30.00;;;;;;;;5085466;27;62137;-79
2023/03/02 04:35:32;;;;;;;;;42.33;34.67;;;;;;;;5066712;27;64721;-79
2023/03/02 04:37:57;;;;;;;;;41.00;30.33;;;;;;;;5067039;28;61778;-79
2023/03/02 04:40:23;;;;;;;;;41.67;35.00;;;;;;;;5067246;28;61919;-79
2023/03/02 04:42:48;;;;;;;;;47.00;34.00;;;;;;;;5067541;27;62124;-79
2023/03/02 04:45:14;;;;;;;;;47.33;37.00;;;;;;;;5066471;28;64937;-79
2023/03/02 04:47:40;;;;;;;;;44.67;30.00;;;;;;;;5063851;28;61810;-79
2023/03/02 04:50:05;;;;;;;;;52.00;38.33;;;;;;;;5063711;28;61816;-79
2023/03/02 04:52:31;;;;;;;;;51.67;34.33;;;;;;;;5065210;28;61735;-79
2023/03/02 04:54:56;;;;;;;;;49.67;37.33;;;;;;;;5046306;28;63770;-79
2023/03/02 04:57:21;;;;;;;;;48.33;36.67;;;;;;;;5046435;28;61917;-79
2023/03/02 04:59:46;;;;;;;;;43.33;35.33;;;;;;;;5065107;28;61771;-79
2023/03/02 05:02:12;;;;;;;;;54.00;40.00;;;;;;;;5065069;28;62044;-79
2023/03/02 05:04:39;;;;;;;;;47.00;37.00;;;;;;;;5064551;28;61847;-79
2023/03/02 05:07:04;;;;;;;;;46.67;42.00;;;;;;;;5046423;28;61968;-79
2023/03/02 05:09:29;;;;;;;;;45.67;32.67;;;;;;;;5046473;28;61904;-79
2023/03/02 05:11:56;;;;;;;;;34.67;32.00;;;;;;;;5046989;28;62145;-79
2023/03/02 05:14:21;;;;;;;;;41.67;33.67;;;;;;;;5046239;28;63771;-79
2023/03/02 05:16:46;;;;;;;;;45.33;34.00;;;;;;;;5046563;28;61915;-79
2023/03/02 05:19:12;;;;;;;;;40.33;35.33;;;;;;;;5046761;28;61941;-79
2023/03/02 05:21:37;;;;;;;;;52.33;39.00;;;;;;;;5064466;28;61934;-79
2023/03/02 05:24:03;;;;;;;;;41.67;36.00;;;;;;;;5064077;28;62106;-79
2023/03/02 05:26:28;;;;;;;;;40.33;35.67;;;;;;;;5046334;28;61972;-79
2023/03/02 05:28:53;;;;;;;;;57.67;40.67;;;;;;;;5064541;28;62525;-79
2023/03/02 05:31:30;;;;;;;;;54.67;41.00;;;;;;;;5069414;28;61937;-79
2023/03/02 05:33:56;;;;;;;;;51.00;38.33;;;;;;;;5084406;28;61971;-79
2023/03/02 05:36:21;;;;;;;;;54.67;38.67;;;;;;;;5065878;28;61940;-79
2023/03/02 05:38:47;;;;;;;;;50.00;40.00;;;;;;;;5066351;28;61808;-79
2023/03/02 05:41:12;;;;;;;;;60.00;35.33;;;;;;;;5084933;28;61889;-79
2023/03/02 05:43:37;;;;;;;;;45.67;37.33;;;;;;;;5084255;27;61820;-79
2023/03/02 05:46:02;;;;;;;;;44.00;40.67;;;;;;;;5084344;28;61721;-79
2023/03/02 05:48:29;;;;;;;;;42.00;39.33;;;;;;;;5084489;28;61753;-79
2023/03/02 05:50:54;;;;;;;;;50.33;36.67;;;;;;;;5066540;28;62162;-79
2023/03/02 05:53:19;;;;;;;;;45.00;32.33;;;;;;;;5064701;27;64799;-79
2023/03/02 05:55:44;;;;;;;;;51.67;39.33;;;;;;;;5066206;28;61933;-79
2023/03/02 05:58:14;;;;;;;;;47.00;38.00;;;;;;;;5066169;28;61933;-79
2023/03/02 06:00:40;;;;;;;;;38.67;35.00;;;;;;;;5084479;27;61970;-79
2023/03/02 06:03:05;;;;;;;;;47.00;41.00;;;;;;;;5065581;28;63844;-79
2023/03/02 06:05:30;;;;;;;;;45.67;39.33;;;;;;;;5065957;27;62176;-79
2023/03/02 06:07:56;;;;;;;;;57.00;46.00;;;;;;;;5083750;28;61923;-79
2023/03/02 06:10:21;;;;;;;;;49.33;40.00;;;;;;;;5066179;28;62024;-79
2023/03/02 06:12:46;;;;;;;;;43.67;38.67;;;;;;;;5083592;27;63036;-79
2023/03/02 06:15:12;;;;;;;;;55.67;38.67;;;;;;;;5066006;28;61756;-80
2023/03/02 06:17:37;;;;;;;;;51.67;40.67;;;;;;;;5065870;28;61900;-80
2023/03/02 06:20:09;;;;;;;;;52.00;43.33;;;;;;;;5084493;28;61638;-80
2023/03/02 06:22:34;;;;;;;;;48.67;43.00;;;;;;;;5083018;27;62013;-80
2023/03/02 06:24:59;;;;;;;;;47.33;40.67;;;;;;;;5066073;28;61768;-80
2023/03/02 06:27:24;;;;;;;;;53.00;37.33;;;;;;;;5083784;27;61920;-80
2023/03/02 06:29:50;;;;;;;;;54.00;40.00;;;;;;;;5084191;28;62529;-80
2023/03/02 06:32:16;;;;;;;;;58.67;42.33;;;;;;;;5064840;28;63751;-80
2023/03/02 06:34:43;;;;;;;;;55.67;37.67;;;;;;;;5083812;28;61694;-80
2023/03/02 06:37:09;;;;;;;;;55.33;42.33;;;;;;;;5064943;28;61796;-80
2023/03/02 06:39:34;;;;;;;;;54.67;37.00;;;;;;;;5065966;28;61870;-81
2023/03/02 06:42:00;;;;;;;;;48.33;35.67;;;;;;;;5064787;28;63653;-80
2023/03/02 06:44:25;;;;;;;;;39.00;35.00;;;;;;;;5065670;28;62022;-80
2023/03/02 06:46:50;;;;;;;;;58.33;42.33;;;;;;;;5083294;27;61817;-81
2023/03/02 06:49:15;;;;;;;;;55.00;39.67;;;;;;;;5083118;27;61739;-81
2023/03/02 06:51:41;;;;;;;;;51.00;39.67;;;;;;;;5055228;28;63897;-81
2023/03/02 06:54:07;;;;;;;;;50.33;39.00;;;;;;;;5075142;28;62626;-82
2023/03/02 06:56:32;;;;;;;;;45.00;40.33;;;;;;;;5055958;28;61917;-82
2023/03/02 06:58:58;;;;;;;;;54.00;41.33;;;;;;;;5074509;28;61846;-81
2023/03/02 07:01:23;;;;;;;;;48.67;41.33;;;;;;;;5053901;28;64089;-81
2023/03/02 07:03:48;;;;;;;;;57.00;40.67;;;;;;;;5064122;28;61908;-81
2023/03/02 07:06:14;;;;;;;;;49.33;37.00;;;;;;;;5082899;27;61869;-81
2023/03/02 07:08:39;;;;;;;;;46.00;37.33;;;;;;;;5064964;28;61892;-81
2023/03/02 07:11:06;;;;;;;;;55.00;37.33;;;;;;;;5082646;28;61764;-81
2023/03/02 07:13:32;;;;;;;;;49.67;43.00;;;;;;;;5065116;28;62157;-81
2023/03/02 07:15:57;;;;;;;;;55.33;43.33;;;;;;;;5064939;28;61761;-82
2023/03/02 07:18:22;;;;;;;;;47.33;39.33;;;;;;;;5083560;27;61855;-82
2023/03/02 07:20:48;;;;;;;;;54.33;43.33;;;;;;;;5064056;28;64120;-82
2023/03/02 07:23:13;;;;;;;;;47.67;41.67;;;;;;;;5064446;28;61959;-82
2023/03/02 07:25:38;;;;;;;;;45.00;38.00;;;;;;;;5065151;28;61807;-80
2023/03/02 07:28:04;;;;;;;;;47.33;39.33;;;;;;;;5064638;28;62173;-80
2023/03/02 07:30:29;;;;;;;;;48.33;39.33;;;;;;;;5063886;28;64770;-81
2023/03/02 07:32:54;;;;;;;;;49.67;40.00;;;;;;;;5082576;28;61940;-81
2023/03/02 07:35:20;;;;;;;;;53.00;43.67;;;;;;;;5082884;27;61707;-81
2023/03/02 07:37:45;;;;;;;;;65.00;46.33;;;;;;;;5082847;28;61780;-81
2023/03/02 07:40:11;;;;;;;;;50.00;43.33;;;;;;;;5063736;28;63925;-81
2023/03/02 07:42:37;;;;;;;;;49.00;42.33;;;;;;;;5082852;28;61873;-81
2023/03/02 07:45:03;;;;;;;;;53.67;38.33;;;;;;;;5064654;28;61791;-81
2023/03/02 07:47:28;;;;;;;;;40.00;35.33;;;;;;;;5081541;28;61755;-82
2023/03/02 07:49:54;;;;;;;;;43.67;38.33;;;;;;;;5063609;28;63705;-81
2023/03/02 07:52:19;;;;;;;;;55.00;45.00;;;;;;;;5063822;28;61853;-81
2023/03/02 07:54:44;;;;;;;;;61.00;33.33;;;;;;;;5064405;28;61839;-82
2023/03/02 07:57:09;;;;;;;;;58.67;41.33;;;;;;;;5064354;28;61817;-82
2023/03/02 07:59:35;;;;;;;;;48.67;42.33;;;;;;;;5063035;28;63631;-82
2023/03/02 08:02:00;;;;;;;;;55.67;44.67;;;;;;;;5063487;28;61857;-82
2023/03/02 08:04:25;;;;;;;;;49.67;41.33;;;;;;;;5082712;27;61705;-82
2023/03/02 08:06:51;;;;;;;;;50.67;39.00;;;;;;;;5082263;28;61699;-82
2023/03/02 08:09:16;;;;;;;;;50.33;42.33;;;;;;;;5059768;28;64149;-82
2023/03/02 08:11:41;;;;;;;;;53.33;40.00;;;;;;;;5056971;28;62185;-82
2023/03/02 08:14:07;;;;;;;;;60.67;44.33;;;;;;;;5072424;28;61965;-82
2023/03/02 08:16:32;;;;;;;;;52.33;45.00;;;;;;;;5070965;28;61849;-82
2023/03/02 08:18:57;;;;;;;;;68.33;41.33;;;;;;;;5048045;28;64616;-82
2023/03/02 08:21:23;;;;;;;;;64.33;44.33;;;;;;;;5064928;28;61696;-82
2023/03/02 08:23:49;;;;;;;;;54.67;32.33;;;;;;;;5082432;27;61813;-82
2023/03/02 08:26:15;;;;;;;;;44.67;36.67;;;;;;;;5064080;28;62107;-82
2023/03/02 08:28:40;;;;;;;;;54.00;41.00;;;;;;;;5063048;28;64045;-83
2023/03/02 08:31:06;;;;;;;;;62.00;45.33;;;;;;;;5081507;27;61796;-82
2023/03/02 08:33:32;;;;;;;;;50.00;40.33;;;;;;;;5063736;27;61966;-82
2023/03/02 08:35:58;;;;;;;;;50.33;44.00;;;;;;;;5082284;28;61835;-82
2023/03/02 08:38:24;;;;;;;;;50.00;44.00;;;;;;;;5044975;28;63497;-83
2023/03/02 08:40:50;;;;;;;;;48.67;34.33;;;;;;;;5051321;28;62148;-82
2023/03/02 08:43:15;;;;;;;;;55.33;41.00;;;;;;;;5043710;28;61954;-79
2023/03/02 08:45:41;;;;;;;;;49.33;42.00;;;;;;;;5071007;28;61671;-83
2023/03/02 08:48:06;;;;;;;;;44.33;40.67;;;;;;;;5062618;28;63947;-83
2023/03/02 08:50:32;;;;;;;;;56.33;45.00;;;;;;;;5057934;28;61919;-82
2023/03/02 08:52:58;;;;;;;;;52.67;41.67;;;;;;;;5050800;28;61969;-82
2023/03/02 08:55:23;;;;;;;;;49.67;41.33;;;;;;;;5070866;28;61732;-82
2023/03/02 08:57:48;;;;;;;;;45.33;37.67;;;;;;;;5053563;28;65038;-82
2023/03/02 09:00:15;;;;;;;;;62.67;41.00;;;;;;;;5052184;28;61893;-83
2023/03/02 09:02:41;;;;;;;;;60.33;43.33;;;;;;;;5052605;28;61958;-83
2023/03/02 09:05:06;;;;;;;;;59.33;47.33;;;;;;;;5054341;28;61878;-83
2023/03/02 09:07:32;;;;;;;;;58.67;45.00;;;;;;;;5066160;28;62652;-84
2023/03/02 09:09:57;;;;;;;;;66.00;48.00;;;;;;;;5068476;27;61910;-82
2023/03/02 09:12:22;;;;;;;;;69.00;51.00;;;;;;;;5063482;28;61783;-82
2023/03/02 09:14:48;;;;;;;;;67.67;45.00;;;;;;;;5047066;28;61754;-83
2023/03/02 09:17:14;;;;;;;;;56.00;40.33;;;;;;;;5045807;28;64074;-83
2023/03/02 09:19:40;;;;;;;;;59.67;46.67;;;;;;;;5064889;28;61823;-83
2023/03/02 09:22:06;;;;;;;;;56.67;42.00;;;;;;;;5046491;28;61958;-83
2023/03/02 09:24:32;;;;;;;;;50.67;41.00;;;;;;;;5065036;28;61770;-83
2023/03/02 09:26:57;;;;;;;;;56.33;41.00;;;;;;;;5045744;28;64099;-83
2023/03/02 09:29:22;;;;;;;;;59.67;45.67;;;;;;;;5046196;28;62017;-82
2023/03/02 09:31:47;;;;;;;;;59.00;47.33;;;;;;;;5073710;27;61866;-83
2023/03/02 09:34:13;;;;;;;;;65.00;46.67;;;;;;;;5066896;28;62436;-83
2023/03/02 09:36:38;;;;;;;;;51.67;42.00;;;;;;;;5083682;28;62003;-82
2023/03/02 09:39:08;;;;;;;;;54.33;40.33;;;;;;;;5066758;28;62047;-83
2023/03/02 09:41:40;;;;;;;;;59.00;43.00;;;;;;;;5066588;27;61844;-82
2023/03/02 09:44:16;;;;;;;;;54.33;42.67;;;;;;;;5066720;27;61713;-82
2023/03/02 09:47:02;;;;;;;;;52.00;41.67;;;;;;;;5084007;27;62338;-82
2023/03/02 09:49:46;;;;;;;;;47.00;35.67;;;;;;;;5066126;28;61965;-82
2023/03/02 09:52:27;;;;;;;;;47.33;40.67;;;;;;;;5066223;28;61857;-83
2023/03/02 09:54:53;;;;;;;;;61.33;42.67;;;;;;;;5084812;27;61917;-82
2023/03/02 09:57:31;;;;;;;;;47.67;36.67;;;;;;;;5065463;27;63861;-83
2023/03/02 09:59:59;;;;;;;;;54.67;41.67;;;;;;;;5065780;28;61996;-83
2023/03/02 10:02:27;;;;;;;;;39.00;34.33;;;;;;;;5066181;27;61779;-83
2023/03/02 10:04:54;;;;;;;;;59.33;38.67;;;;;;;;5066418;28;62163;-83
2023/03/02 10:07:27;;;;;;;;;51.75;42.50;;;;;;;;5065028;27;63807;-83
2023/03/02 10:09:54;;;;;;;;;59.33;42.33;;;;;;;;5084448;27;61687;-83
2023/03/02 10:12:38;;;;;;;;;50.25;42.50;;;;;;;;5066197;28;61900;-83
2023/03/02 10:15:04;;;;;;;;;56.50;39.25;;;;;;;;5084512;28;61643;-83
2023/03/02 10:17:44;;;;;;;;;57.67;42.33;;;;;;;;5083574;27;62223;-83
2023/03/02 10:20:16;;;;;;;;;58.33;46.00;;;;;;;;5065899;28;61854;-83
2023/03/02 10:23:06;;;;;;;;;53.33;46.67;;;;;;;;5064954;27;61814;-83
2023/03/02 10:25:46;;;;;;;;;61.33;45.00;;;;;;;;5065946;28;61962;-83
2023/03/02 10:28:21;;;;;;;;;44.50;36.50;;;;;;;;5064780;27;63747;-83
2023/03/02 10:30:55;;;;;;;;;49.33;39.33;;;;;;;;5064987;27;61872;-83
2023/03/02 10:33:21;;;;;;;;;49.75;42.00;;;;;;;;5065717;28;62123;-83
2023/03/02 10:35:51;;;;;;;;;45.75;40.75;;;;;;;;5065612;28;61763;-83
2023/03/02 10:38:18;;;;;;;;;56.50;39.25;;;;;;;;5064486;28;63807;-83
2023/03/02 10:41:09;;;;;;;;;59.67;44.67;;;;;;;;5065414;28;61844;-83
2023/03/02 10:43:45;;;;;;;;;54.67;42.00;;;;;;;;5079214;27;62231;-83
2023/03/02 10:46:11;;;;;;;;;57.50;43.00;;;;;;;;5065645;28;62127;-83
2023/03/02 10:48:57;;;;;;;;;54.75;43.75;;;;;;;;5064819;28;63713;-83
2023/03/02 10:51:30;;;;;;;;;55.25;39.50;;;;;;;;5065259;28;61794;-83
2023/03/02 10:54:02;;;;;;;;;55.50;41.25;;;;;;;;5083641;28;61829;-83
2023/03/02 10:56:28;;;;;;;;;41.25;38.00;;;;;;;;5065555;28;61828;-83
2023/03/02 10:59:01;;;;;;;;;45.50;39.75;;;;;;;;5063994;28;63785;-82
2023/03/02 11:01:27;;;;;;;;;57.25;41.00;;;;;;;;5083420;27;61834;-82
2023/03/02 11:04:00;;;;;;;;;49.75;40.25;;;;;;;;5065320;28;61914;-83
2023/03/02 11:06:26;;;;;;;;;48.75;38.00;;;;;;;;5065247;28;62194;-83
2023/03/02 11:09:04;;;;;;;;;43.00;38.00;;;;;;;;5064266;27;65154;-83
2023/03/02 11:11:30;;;;;;;;;53.75;39.75;;;;;;;;5083228;28;61971;-83
2023/03/02 11:14:06;;;;;;;;;40.00;35.75;;;;;;;;5083219;27;61689;-83
2023/03/02 11:16:31;;;;;;;;;45.75;37.00;;;;;;;;5065403;28;61740;-83
2023/03/02 11:19:05;;;;;;;;;54.25;40.50;;;;;;;;5064051;28;64788;-83
2023/03/02 11:21:42;;;;;;;;;55.00;40.50;;;;;;;;5064785;28;61804;-83
2023/03/02 11:24:14;;;;;;;;;40.25;37.50;;;;;;;;5064678;28;61882;-83
2023/03/02 11:26:51;;;;;;;;;52.00;39.75;;;;;;;;5083161;28;61839;-83
2023/03/02 11:29:19;;;;;;;;;50.50;39.25;;;;;;;;5081744;27;61859;-83
2023/03/02 11:31:47;;;;;;;;;50.50;39.25;;;;;;;;5064359;28;61885;-83
2023/03/02 11:34:28;;;;;;;;;57.75;37.25;;;;;;;;5064706;28;61944;-83
2023/03/02 11:37:03;;;;;;;;;55.25;40.50;;;;;;;;5082544;27;61716;-83
2023/03/02 11:39:39;;;;;;;;;60.00;42.75;;;;;;;;5082449;28;61951;-83
2023/03/02 11:42:06;;;;;;;;;56.50;38.50;;;;;;;;5064312;27;61992;-82
2023/03/02 11:44:31;;;;;;;;;41.75;38.50;;;;;;;;5064930;28;62056;-83
2023/03/02 11:47:00;;;;;;;;;50.75;37.25;;;;;;;;5064714;28;62078;-84
2023/03/02 11:49:32;;;;;;;;;47.75;40.50;;;;;;;;5063791;28;63772;-83
2023/03/02 11:51:59;;;;;;;;;46.50;36.25;;;;;;;;5064093;28;61832;-83
2023/03/02 11:54:27;;;;;;;;;42.75;37.50;;;;;;;;5064776;28;61842;-83
2023/03/02 11:56:53;;;;;;;;;54.50;40.00;;;;;;;;5082718;27;62021;-83
2023/03/02 11:59:20;;;;;;;;;47.50;39.75;;;;;;;;5081605;27;61909;-83
2023/03/02 12:01:48;;;;;;;;;57.50;38.25;;;;;;;;5082769;28;61877;-83
2023/03/02 12:04:23;;;;;;;;;50.00;40.75;;;;;;;;5064325;28;61805;-83
2023/03/02 12:06:48;;;;;;;;;43.75;36.75;;;;;;;;5064185;28;61968;-83
2023/03/02 12:09:23;;;;;;;;;49.00;36.50;;;;;;;;5081869;28;61774;-84
2023/03/02 12:12:15;;;;;;;;;44.50;37.75;;;;;;;;5063852;28;61868;-83
2023/03/02 12:14:41;;;;;;;;;57.00;41.75;;;;;;;;4999892;28;61964;-83
2023/03/02 12:17:24;;;;;;;;;51.25;38.00;;;;;;;;4983390;28;62123;-83
2023/03/02 12:19:54;;;;;;;;;44.25;37.25;;;;;;;;4982722;28;65162;-83
2023/03/02 12:22:27;;;;;;;;;50.75;36.75;;;;;;;;4999317;28;61909;-83
2023/03/02 12:24:59;;;;;;;;;54.00;39.00;;;;;;;;4982933;28;62353;-83
2023/03/02 12:27:25;;;;;;;;;53.25;39.25;;;;;;;;4983228;28;62265;-84
2023/03/02 12:29:55;;;;;;;;;53.75;39.00;;;;;;;;4982296;28;63604;-84
2023/03/02 12:32:27;;;;;;;;;48.75;36.75;;;;;;;;4970133;28;61821;-84
2023/03/02 12:34:52;;;;;;;;;49.00;36.50;;;;;;;;4979998;28;61793;-84
2023/03/02 12:37:23;;;;;;;;;44.50;36.50;;;;;;;;4963138;28;62351;-83
2023/03/02 12:39:51;;;;;;;;;37.50;31.50;;;;;;;;4979271;28;62025;-84
2023/03/02 12:42:30;;;;;;;;;52.00;38.50;;;;;;;;4963403;28;61997;-84
2023/03/02 12:45:02;;;;;;;;;38.75;35.25;;;;;;;;4963507;28;61890;-83
2023/03/02 12:47:28;;;;;;;;;40.00;32.00;;;;;;;;4981565;28;61869;-83
2023/03/02 12:49:59;;;;;;;;;49.25;36.50;;;;;;;;4982619;28;64108;-83
2023/03/02 12:52:34;;;;;;;;;40.00;31.75;;;;;;;;5039010;28;62005;-83
2023/03/02 12:55:00;;;;;;;;;44.00;35.50;;;;;;;;5065482;28;61795;-83
2023/03/02 12:57:25;;;;;;;;;44.00;37.75;;;;;;;;5046777;28;62733;-83
2023/03/02 12:59:57;;;;;;;;;38.50;33.75;;;;;;;;5064485;28;61672;-83
2023/03/02 13:02:23;;;;;;;;;44.75;35.00;;;;;;;;5046874;28;62009;-84
2023/03/02 13:05:03;;;;;;;;;47.50;35.25;;;;;;;;5047151;28;61708;-83
2023/03/02 13:08:03;;;;;;;;;44.50;36.50;;;;;;;;5046471;28;62104;-83
2023/03/02 13:10:34;;;;;;;;;42.25;35.75;;;;;;;;4965667;28;64061;-83
2023/03/02 13:13:00;;;;;;;;;36.50;30.75;;;;;;;;4966356;28;61819;-83
2023/03/02 13:15:26;;;;;;;;;42.50;34.00;;;;;;;;4982914;28;61950;-83
2023/03/02 13:17:53;;;;;;;;;44.00;35.25;;;;;;;;4982836;28;62082;-83
2023/03/02 13:20:19;;;;;;;;;41.75;32.75;;;;;;;;4965922;28;63693;-83
2023/03/02 13:22:44;;;;;;;;;39.00;33.00;;;;;;;;4965725;28;62088;-83
2023/03/02 13:25:20;;;;;;;;;49.25;36.00;;;;;;;;4966307;28;61983;-83
2023/03/02 13:27:56;;;;;;;;;52.00;36.75;;;;;;;;4966238;28;61856;-83
2023/03/02 13:30:27;;;;;;;;;41.50;33.75;;;;;;;;4981611;28;64885;-83
2023/03/02 13:32:54;;;;;;;;;41.75;33.75;;;;;;;;4983343;28;62359;-83
2023/03/02 13:35:21;;;;;;;;;45.25;35.00;;;;;;;;5002333;28;61885;-83
2023/03/02 13:37:54;;;;;;;;;49.75;34.50;;;;;;;;4985026;28;62064;-83
2023/03/02 13:40:23;;;;;;;;;38.50;32.00;;;;;;;;4985292;28;65319;-83
2023/03/02 13:42:48;;;;;;;;;49.50;36.50;;;;;;;;4985493;28;61955;-83
2023/03/02 13:45:25;;;;;;;;;49.75;34.75;;;;;;;;5052933;28;62069;-83
2023/03/02 13:47:51;;;;;;;;;46.25;35.25;;;;;;;;5063105;28;61805;-83
2023/03/02 13:50:24;;;;;;;;;52.00;36.00;;;;;;;;5063793;28;62837;-83
2023/03/02 13:52:50;;;;;;;;;47.50;37.25;;;;;;;;5063650;28;62090;-83
2023/03/02 13:55:17;;;;;;;;;49.50;35.75;;;;;;;;5063284;28;61913;-83
2023/03/02 13:57:44;;;;;;;;;49.00;38.25;;;;;;;;5062900;28;61906;-83
2023/03/02 14:00:15;;;;;;;;;41.75;34.25;;;;;;;;5063339;28;61927;-83
2023/03/02 14:02:43;;;;;;;;;48.75;35.00;;;;;;;;5062764;28;61770;-83
2023/03/02 14:05:18;;;;;;;;;48.50;35.75;;;;;;;;5063462;28;61905;-82
2023/03/02 14:07:45;;;;;;;;;39.75;34.75;;;;;;;;5062243;28;61764;-84
2023/03/02 14:10:10;;;;;;;;;47.00;35.25;;;;;;;;5062071;28;63898;-84
2023/03/02 14:12:36;;;;;;;;;31.00;27.25;;;;;;;;5064009;28;61821;-84
2023/03/02 14:15:02;;;;;;;;;51.00;34.25;;;;;;;;5064256;28;61898;-84
2023/03/02 14:17:28;;;;;;;;;42.50;34.00;;;;;;;;5062630;28;62040;-83
2023/03/02 14:19:54;;;;;;;;;42.75;35.50;;;;;;;;5062047;28;63830;-83